sensor_id;sensor_type;location;lat;lon;timestamp;pressure;altitude;pressure_sealevel;temperature;humidity
75425;BME280;64007;50.632;13.700;2023-01-23T00:01:48;99434.63;;;0.53;100.00
75425;BME280;64007;50.632;13.700;2023-01-23T00:04:14;99432.97;;;0.49;100.00
75425;BME280;64007;50.632;13.700;2023-01-23T00:06:41;99440.78;;;0.51;100.00
75425;BME280;64007;50.632;13.700;2023-01-23T00:09:07;99444.34;;;0.48;100.00
75425;BME280;64007;50.632;13.700;2023-01-23T00:11:33;99441.72;;;0.48;100.00
75425;BME280;64007;50.632;13.700;2023-01-23T00:14:00;99445.16;;;0.50;100.00
75425;BME280;64007;50.632;13.700;2023-01-23T00:16:28;99442.56;;;0.50;100.00
75425;BME280;64007;50.632;13.700;2023-01-23T00:18:54;99445.22;;;0.47;100.00
75425;BME280;64007;50.632;13.700;2023-01-23T00:21:23;99437.38;;;0.47;100.00
75425;BME280;64007;50.632;13.700;2023-01-23T00:23:51;99431.28;;;0.47;100.00
75425;BME280;64007;50.632;13.700;2023-01-23T00:26:20;99439.94;;;0.50;100.00
75425;BME280;64007;50.632;13.700;2023-01-23T00:28:47;99441.78;;;0.45;100.00
75425;BME280;64007;50.632;13.700;2023-01-23T00:31:19;99436.44;;;0.51;100.00
75425;BME280;64007;50.632;13.700;2023-01-23T00:33:45;99450.28;;;0.56;100.00
75425;BME280;64007;50.632;13.700;2023-01-23T00:36:12;99432.84;;;0.55;100.00
75425;BME280;64007;50.632;13.700;2023-01-23T00:38:39;99439.75;;;0.59;100.00
75425;BME280;64007;50.632;13.700;2023-01-23T00:41:04;99436.25;;;0.60;100.00
75425;BME280;64007;50.632;13.700;2023-01-23T00:43:31;99437.16;;;0.59;100.00
75425;BME280;64007;50.632;13.700;2023-01-23T00:45:57;99446.78;;;0.57;100.00
75425;BME280;64007;50.632;13.700;2023-01-23T00:48:23;99450.22;;;0.59;100.00
75425;BME280;64007;50.632;13.700;2023-01-23T00:50:49;99446.75;;;0.59;100.00
75425;BME280;64007;50.632;13.700;2023-01-23T00:53:15;99458.03;;;0.62;100.00
75425;BME280;64007;50.632;13.700;2023-01-23T00:55:40;99464.09;;;0.65;100.00
75425;BME280;64007;50.632;13.700;2023-01-23T00:58:07;99472.78;;;0.67;100.00
75425;BME280;64007;50.632;13.700;2023-01-23T01:00:33;99469.34;;;0.65;100.00
75425;BME280;64007;50.632;13.700;2023-01-23T01:02:59;99470.28;;;0.60;100.00
75425;BME280;64007;50.632;13.700;2023-01-23T01:05:25;99480.75;;;0.60;100.00
75425;BME280;64007;50.632;13.700;2023-01-23T01:07:51;99472.88;;;0.62;100.00
75425;BME280;64007;50.632;13.700;2023-01-23T01:10:16;99477.34;;;0.55;100.00
75425;BME280;64007;50.632;13.700;2023-01-23T01:12:42;99472.22;;;0.49;100.00
75425;BME280;64007;50.632;13.700;2023-01-23T01:15:09;99469.59;;;0.49;100.00
75425;BME280;64007;50.632;13.700;2023-01-23T01:17:35;99480.06;;;0.49;100.00
75425;BME280;64007;50.632;13.700;2023-01-23T01:20:01;99486.19;;;0.48;100.00
75425;BME280;64007;50.632;13.700;2023-01-23T01:22:27;99489.69;;;0.49;100.00
75425;BME280;64007;50.632;13.700;2023-01-23T01:24:52;99488.75;;;0.51;100.00
75425;BME280;64007;50.632;13.700;2023-01-23T01:27:18;99473.94;;;0.50;100.00
75425;BME280;64007;50.632;13.700;2023-01-23T01:29:44;99474.78;;;0.52;100.00
75425;BME280;64007;50.632;13.700;2023-01-23T01:32:09;99481.75;;;0.53;100.00
75425;BME280;64007;50.632;13.700;2023-01-23T01:34:35;99484.34;;;0.55;100.00
75425;BME280;64007;50.632;13.700;2023-01-23T01:37:01;99477.44;;;0.51;100.00
75425;BME280;64007;50.632;13.700;2023-01-23T01:39:26;99485.28;;;0.51;100.00
75425;BME280;64007;50.632;13.700;2023-01-23T01:41:52;99487.03;;;0.50;100.00
75425;BME280;64007;50.632;13.700;2023-01-23T01:44:20;99497.44;;;0.53;100.00
75425;BME280;64007;50.632;13.700;2023-01-23T01:46:46;99504.50;;;0.48;100.00
75425;BME280;64007;50.632;13.700;2023-01-23T01:49:15;99502.69;;;0.53;100.00
75425;BME280;64007;50.632;13.700;2023-01-23T01:54:24;99507.97;;;0.50;100.00
75425;BME280;64007;50.632;13.700;2023-01-23T01:57:04;99512.34;;;0.50;100.00
75425;BME280;64007;50.632;13.700;2023-01-23T01:59:43;99508.03;;;0.47;100.00
75425;BME280;64007;50.632;13.700;2023-01-23T02:02:12;99517.59;;;0.48;100.00
75425;BME280;64007;50.632;13.700;2023-01-23T02:04:41;99521.94;;;0.49;100.00
75425;BME280;64007;50.632;13.700;2023-01-23T02:07:16;99527.19;;;0.49;100.00
75425;BME280;64007;50.632;13.700;2023-01-23T02:09:45;99530.63;;;0.51;100.00
75425;BME280;64007;50.632;13.700;2023-01-23T02:12:12;99526.25;;;0.52;100.00
75425;BME280;64007;50.632;13.700;2023-01-23T02:14:37;99533.28;;;0.50;100.00
75425;BME280;64007;50.632;13.700;2023-01-23T02:17:03;99525.41;;;0.51;100.00
75425;BME280;64007;50.632;13.700;2023-01-23T02:22:10;99529.75;;;0.52;100.00
75425;BME280;64007;50.632;13.700;2023-01-23T02:24:52;99539.38;;;0.50;100.00
75425;BME280;64007;50.632;13.700;2023-01-23T02:27:22;99530.63;;;0.51;100.00
75425;BME280;64007;50.632;13.700;2023-01-23T02:29:47;99528.13;;;0.45;100.00
75425;BME280;64007;50.632;13.700;2023-01-23T02:32:16;99520.19;;;0.50;100.00
75425;BME280;64007;50.632;13.700;2023-01-23T02:34:44;99516.66;;;0.52;100.00
75425;BME280;64007;50.632;13.700;2023-01-23T02:37:11;99509.69;;;0.51;100.00
75425;BME280;64007;50.632;13.700;2023-01-23T02:39:36;99508.81;;;0.52;100.00
75425;BME280;64007;50.632;13.700;2023-01-23T02:42:04;99504.47;;;0.51;100.00
75425;BME280;64007;50.632;13.700;2023-01-23T02:44:30;99501.75;;;0.56;100.00
75425;BME280;64007;50.632;13.700;2023-01-23T02:47:02;99498.22;;;0.58;100.00
75425;BME280;64007;50.632;13.700;2023-01-23T02:49:28;99498.25;;;0.57;100.00
75425;BME280;64007;50.632;13.700;2023-01-23T02:51:54;99496.50;;;0.57;100.00
75425;BME280;64007;50.632;13.700;2023-01-23T02:54:21;99499.00;;;0.63;100.00
75425;BME280;64007;50.632;13.700;2023-01-23T02:56:47;99490.44;;;0.55;100.00
75425;BME280;64007;50.632;13.700;2023-01-23T02:59:13;99494.84;;;0.53;100.00
75425;BME280;64007;50.632;13.700;2023-01-23T03:01:57;99495.63;;;0.58;100.00
75425;BME280;64007;50.632;13.700;2023-01-23T03:04:23;99495.63;;;0.58;100.00
75425;BME280;64007;50.632;13.700;2023-01-23T03:06:49;99495.72;;;0.52;100.00
75425;BME280;64007;50.632;13.700;2023-01-23T03:09:15;99489.69;;;0.49;100.00
75425;BME280;64007;50.632;13.700;2023-01-23T03:11:43;99500.97;;;0.52;100.00
75425;BME280;64007;50.632;13.700;2023-01-23T03:14:17;99505.31;;;0.53;100.00
75425;BME280;64007;50.632;13.700;2023-01-23T03:16:43;99506.25;;;0.49;100.00
75425;BME280;64007;50.632;13.700;2023-01-23T03:19:14;99510.63;;;0.47;100.00
75425;BME280;64007;50.632;13.700;2023-01-23T03:21:40;99511.84;;;0.77;100.00
75425;BME280;64007;50.632;13.700;2023-01-23T03:24:08;99516.94;;;0.86;100.00
75425;BME280;64007;50.632;13.700;2023-01-23T03:26:39;99515.41;;;0.73;100.00
75425;BME280;64007;50.632;13.700;2023-01-23T03:29:05;99513.97;;;0.57;100.00
75425;BME280;64007;50.632;13.700;2023-01-23T03:31:50;99519.28;;;0.52;100.00
75425;BME280;64007;50.632;13.700;2023-01-23T03:34:16;99512.38;;;0.48;100.00
75425;BME280;64007;50.632;13.700;2023-01-23T03:36:44;99516.44;;;0.65;100.00
75425;BME280;64007;50.632;13.700;2023-01-23T03:39:09;99519.72;;;0.76;100.00
75425;BME280;64007;50.632;13.700;2023-01-23T03:41:54;99531.94;;;0.77;100.00
75425;BME280;64007;50.632;13.700;2023-01-23T03:44:20;99523.47;;;0.62;100.00
75425;BME280;64007;50.632;13.700;2023-01-23T03:46:47;99525.41;;;0.51;100.00
75425;BME280;64007;50.632;13.700;2023-01-23T03:49:14;99528.97;;;0.46;100.00
75425;BME280;64007;50.632;13.700;2023-01-23T03:51:40;99530.75;;;0.45;100.00
75425;BME280;64007;50.632;13.700;2023-01-23T03:54:05;99526.38;;;0.46;100.00
75425;BME280;64007;50.632;13.700;2023-01-23T03:56:31;99528.13;;;0.45;100.00
75425;BME280;64007;50.632;13.700;2023-01-23T03:58:57;99525.50;;;0.45;100.00
75425;BME280;64007;50.632;13.700;2023-01-23T04:01:24;99522.97;;;0.41;100.00
75425;BME280;64007;50.632;13.700;2023-01-23T04:03:49;99516.88;;;0.40;100.00
75425;BME280;64007;50.632;13.700;2023-01-23T04:06:16;99517.69;;;0.42;100.00
75425;BME280;64007;50.632;13.700;2023-01-23T04:08:41;99522.06;;;0.43;100.00
75425;BME280;64007;50.632;13.700;2023-01-23T04:11:09;99521.16;;;0.44;100.00
75425;BME280;64007;50.632;13.700;2023-01-23T04:13:35;99516.81;;;0.43;100.00
75425;BME280;64007;50.632;13.700;2023-01-23T04:16:02;99515.03;;;0.45;100.00
75425;BME280;64007;50.632;13.700;2023-01-23T04:18:28;99506.34;;;0.43;100.00
75425;BME280;64007;50.632;13.700;2023-01-23T04:20:55;99520.31;;;0.42;100.00
75425;BME280;64007;50.632;13.700;2023-01-23T04:23:21;99515.03;;;0.45;100.00
75425;BME280;64007;50.632;13.700;2023-01-23T04:25:47;99520.94;;;0.56;100.00
75425;BME280;64007;50.632;13.700;2023-01-23T04:28:13;99521.91;;;0.52;100.00
75425;BME280;64007;50.632;13.700;2023-01-23T04:30:39;99540.25;;;0.49;100.00
75425;BME280;64007;50.632;13.700;2023-01-23T04:33:06;99531.53;;;0.49;100.00
75425;BME280;64007;50.632;13.700;2023-01-23T04:35:32;99533.31;;;0.48;100.00
75425;BME280;64007;50.632;13.700;2023-01-23T04:37:57;99542.94;;;0.46;100.00
75425;BME280;64007;50.632;13.700;2023-01-23T04:40:24;99543.75;;;0.50;100.00
75425;BME280;64007;50.632;13.700;2023-01-23T04:42:49;99539.44;;;0.47;100.00
75425;BME280;64007;50.632;13.700;2023-01-23T04:45:15;99542.88;;;0.49;100.00
75425;BME280;64007;50.632;13.700;2023-01-23T04:47:40;99538.53;;;0.48;100.00
75425;BME280;64007;50.632;13.700;2023-01-23T04:50:06;99539.38;;;0.50;100.00
75425;BME280;64007;50.632;13.700;2023-01-23T04:52:32;99537.66;;;0.49;100.00
75425;BME280;64007;50.632;13.700;2023-01-23T04:54:58;99539.38;;;0.50;100.00
75425;BME280;64007;50.632;13.700;2023-01-23T04:57:23;99546.38;;;0.48;100.00
75425;BME280;64007;50.632;13.700;2023-01-23T04:59:49;99546.41;;;0.47;100.00
75425;BME280;64007;50.632;13.700;2023-01-23T05:02:15;99550.84;;;0.42;100.00
75425;BME280;64007;50.632;13.700;2023-01-23T05:04:41;99552.56;;;0.44;100.00
75425;BME280;64007;50.632;13.700;2023-01-23T05:07:07;99548.13;;;0.49;100.00
75425;BME280;64007;50.632;13.700;2023-01-23T05:09:39;99556.91;;;0.45;100.00
75425;BME280;64007;50.632;13.700;2023-01-23T05:12:05;99565.59;;;0.47;100.00
75425;BME280;64007;50.632;13.700;2023-01-23T05:14:31;99563.88;;;0.46;100.00
75425;BME280;64007;50.632;13.700;2023-01-23T05:16:57;99556.81;;;0.51;100.00
75425;BME280;64007;50.632;13.700;2023-01-23T05:19:23;99553.41;;;0.46;100.00
75425;BME280;64007;50.632;13.700;2023-01-23T05:21:48;99554.22;;;0.50;100.00
75425;BME280;64007;50.632;13.700;2023-01-23T05:24:14;99546.38;;;0.48;100.00
75425;BME280;64007;50.632;13.700;2023-01-23T05:26:40;99544.66;;;0.47;100.00
75425;BME280;64007;50.632;13.700;2023-01-23T05:29:07;99553.34;;;0.49;100.00
75425;BME280;64007;50.632;13.700;2023-01-23T05:31:32;99557.63;;;0.53;100.00
75425;BME280;64007;50.632;13.700;2023-01-23T05:33:58;99553.25;;;0.55;100.00
75425;BME280;64007;50.632;13.700;2023-01-23T05:36:24;99548.00;;;0.55;100.00
75425;BME280;64007;50.632;13.700;2023-01-23T05:38:49;99548.00;;;0.55;100.00
75425;BME280;64007;50.632;13.700;2023-01-23T05:41:16;99551.47;;;0.57;100.00
75425;BME280;64007;50.632;13.700;2023-01-23T05:43:42;99548.00;;;0.55;100.00
75425;BME280;64007;50.632;13.700;2023-01-23T05:46:08;99553.28;;;0.54;100.00
75425;BME280;64007;50.632;13.700;2023-01-23T05:48:34;99541.94;;;0.53;100.00
75425;BME280;64007;50.632;13.700;2023-01-23T05:51:02;99548.06;;;0.52;100.00
75425;BME280;64007;50.632;13.700;2023-01-23T05:53:28;99552.34;;;0.56;100.00
75425;BME280;64007;50.632;13.700;2023-01-23T05:55:54;99545.44;;;0.52;100.00
75425;BME280;64007;50.632;13.700;2023-01-23T05:58:20;99549.75;;;0.56;100.00
75425;BME280;64007;50.632;13.700;2023-01-23T06:00:45;99543.66;;;0.56;100.00
75425;BME280;64007;50.632;13.700;2023-01-23T06:03:11;99550.56;;;0.60;100.00
75425;BME280;64007;50.632;13.700;2023-01-23T06:05:39;99545.38;;;0.57;100.00
75425;BME280;64007;50.632;13.700;2023-01-23T06:08:05;99551.47;;;0.57;100.00
75425;BME280;64007;50.632;13.700;2023-01-23T06:10:30;99548.91;;;0.54;100.00
75425;BME280;64007;50.632;13.700;2023-01-23T06:12:56;99555.81;;;0.58;100.00
75425;BME280;64007;50.632;13.700;2023-01-23T06:15:22;99563.66;;;0.58;100.00
75425;BME280;64007;50.632;13.700;2023-01-23T06:17:48;99560.03;;;0.67;100.00
75425;BME280;64007;50.632;13.700;2023-01-23T06:20:13;99553.13;;;0.61;100.00
75425;BME280;64007;50.632;13.700;2023-01-23T06:22:39;99564.41;;;0.67;100.00
75425;BME280;64007;50.632;13.700;2023-01-23T06:25:05;99570.69;;;0.56;100.00
75425;BME280;64007;50.632;13.700;2023-01-23T06:27:31;99571.50;;;0.58;100.00
75425;BME280;64007;50.632;13.700;2023-01-23T06:29:56;99579.41;;;0.55;100.00
75425;BME280;64007;50.632;13.700;2023-01-23T06:32:22;99597.75;;;0.55;100.00
75425;BME280;64007;50.632;13.700;2023-01-23T06:34:48;99589.94;;;0.52;100.00
75425;BME280;64007;50.632;13.700;2023-01-23T06:37:14;99603.81;;;0.57;100.00
75425;BME280;64007;50.632;13.700;2023-01-23T06:39:40;99611.56;;;0.63;100.00
75425;BME280;64007;50.632;13.700;2023-01-23T06:42:06;99616.84;;;0.60;100.00
75425;BME280;64007;50.632;13.700;2023-01-23T06:44:37;99615.88;;;0.68;100.00
75425;BME280;64007;50.632;13.700;2023-01-23T06:47:03;99624.66;;;0.63;100.00
75425;BME280;64007;50.632;13.700;2023-01-23T06:49:29;99620.25;;;0.66;100.00
75425;BME280;64007;50.632;13.700;2023-01-23T06:51:55;99629.84;;;0.67;100.00
75425;BME280;64007;50.632;13.700;2023-01-23T06:54:20;99640.34;;;0.63;100.00
75425;BME280;64007;50.632;13.700;2023-01-23T06:56:46;99644.75;;;0.61;100.00
75425;BME280;64007;50.632;13.700;2023-01-23T06:59:13;99641.28;;;0.61;100.00
75425;BME280;64007;50.632;13.700;2023-01-23T07:01:41;99646.53;;;0.59;100.00
75425;BME280;64007;50.632;13.700;2023-01-23T07:04:06;99649.19;;;0.56;100.00
75425;BME280;64007;50.632;13.700;2023-01-23T07:06:34;99653.53;;;0.57;100.00
75425;BME280;64007;50.632;13.700;2023-01-23T07:08:59;99657.84;;;0.61;100.00
75425;BME280;64007;50.632;13.700;2023-01-23T07:11:25;99663.06;;;0.61;100.00
75425;BME280;64007;50.632;13.700;2023-01-23T07:13:51;99656.13;;;0.60;100.00
75425;BME280;64007;50.632;13.700;2023-01-23T07:16:17;99652.56;;;0.65;100.00
75425;BME280;64007;50.632;13.700;2023-01-23T07:18:43;99655.94;;;0.71;100.00
75425;BME280;64007;50.632;13.700;2023-01-23T07:21:09;99659.44;;;0.72;100.00
75425;BME280;64007;50.632;13.700;2023-01-23T07:23:35;99662.97;;;0.68;100.00
75425;BME280;64007;50.632;13.700;2023-01-23T07:26:02;99664.75;;;0.66;100.00
75425;BME280;64007;50.632;13.700;2023-01-23T07:28:28;99657.84;;;0.61;100.00
75425;BME280;64007;50.632;13.700;2023-01-23T07:30:56;99664.75;;;0.66;100.00
75425;BME280;64007;50.632;13.700;2023-01-23T07:33:22;99661.25;;;0.67;100.00
75425;BME280;64007;50.632;13.700;2023-01-23T07:35:48;99662.03;;;0.72;100.00
75425;BME280;64007;50.632;13.700;2023-01-23T07:38:13;99665.59;;;0.68;100.00
75425;BME280;64007;50.632;13.700;2023-01-23T07:40:39;99670.81;;;0.69;100.00
75425;BME280;64007;50.632;13.700;2023-01-23T07:43:07;99675.09;;;0.75;100.00
75425;BME280;64007;50.632;13.700;2023-01-23T07:45:33;99670.69;;;0.77;100.00
75425;BME280;64007;50.632;13.700;2023-01-23T07:47:58;99669.78;;;0.79;100.00
75425;BME280;64007;50.632;13.700;2023-01-23T07:50:24;99674.13;;;0.82;100.00
75425;BME280;64007;50.632;13.700;2023-01-23T07:52:50;99674.13;;;0.82;100.00
75425;BME280;64007;50.632;13.700;2023-01-23T07:55:15;99675.84;;;0.84;100.00
75425;BME280;64007;50.632;13.700;2023-01-23T07:57:41;99674.00;;;0.89;100.00
75425;BME280;64007;50.632;13.700;2023-01-23T08:00:08;99674.00;;;0.91;100.00
75425;BME280;64007;50.632;13.700;2023-01-23T08:02:35;99678.28;;;0.95;100.00
75425;BME280;64007;50.632;13.700;2023-01-23T08:05:01;99680.91;;;0.95;100.00
75425;BME280;64007;50.632;13.700;2023-01-23T08:07:27;99674.78;;;0.96;100.00
75425;BME280;64007;50.632;13.700;2023-01-23T08:09:53;99680.94;;;0.93;100.00
75425;BME280;64007;50.632;13.700;2023-01-23T08:12:18;99673.03;;;0.95;100.00
75425;BME280;64007;50.632;13.700;2023-01-23T08:14:46;99670.31;;;1.01;100.00
75425;BME280;64007;50.632;13.700;2023-01-23T08:17:12;99675.44;;;1.09;100.00
75425;BME280;64007;50.632;13.700;2023-01-23T08:19:37;99664.16;;;1.05;100.00
75425;BME280;64007;50.632;13.700;2023-01-23T08:22:03;99667.66;;;1.04;100.00
75425;BME280;64007;50.632;13.700;2023-01-23T08:24:29;99670.25;;;1.06;100.00
75425;BME280;64007;50.632;13.700;2023-01-23T08:26:54;99671.16;;;1.03;100.00
75425;BME280;64007;50.632;13.700;2023-01-23T08:29:21;99674.63;;;1.05;100.00
75425;BME280;64007;50.632;13.700;2023-01-23T08:31:46;99681.59;;;1.06;100.00
75425;BME280;64007;50.632;13.700;2023-01-23T08:34:12;99672.78;;;1.10;100.00
75425;BME280;64007;50.632;13.700;2023-01-23T08:36:38;99674.41;;;1.17;100.00
75425;BME280;64007;50.632;13.700;2023-01-23T08:39:04;99685.75;;;1.21;100.00
75425;BME280;64007;50.632;13.700;2023-01-23T08:41:30;99684.78;;;1.27;100.00
75425;BME280;64007;50.632;13.700;2023-01-23T08:43:56;99676.00;;;1.29;100.00
75425;BME280;64007;50.632;13.700;2023-01-23T08:46:27;99687.28;;;1.33;100.00
75425;BME280;64007;50.632;13.700;2023-01-23T08:48:54;99697.66;;;1.39;100.00
75425;BME280;64007;50.632;13.700;2023-01-23T08:51:20;99706.22;;;1.48;100.00
75425;BME280;64007;50.632;13.700;2023-01-23T08:53:46;99711.28;;;1.61;100.00
75425;BME280;64007;50.632;13.700;2023-01-23T08:56:17;99712.09;;;1.64;100.00
75425;BME280;64007;50.632;13.700;2023-01-23T08:58:46;99699.75;;;1.69;100.00
75425;BME280;64007;50.632;13.700;2023-01-23T09:01:30;99705.94;;;1.65;100.00
75425;BME280;64007;50.632;13.700;2023-01-23T09:03:55;99703.38;;;1.62;100.00
75425;BME280;64007;50.632;13.700;2023-01-23T09:06:21;99707.63;;;1.69;100.00
75425;BME280;64007;50.632;13.700;2023-01-23T09:08:48;99693.69;;;1.66;100.00
75425;BME280;64007;50.632;13.700;2023-01-23T09:11:14;99696.19;;;1.73;100.00
75425;BME280;64007;50.632;13.700;2023-01-23T09:13:40;99694.22;;;1.84;100.00
75425;BME280;64007;50.632;13.700;2023-01-23T09:16:07;99690.88;;;1.76;100.00
75425;BME280;64007;50.632;13.700;2023-01-23T09:18:33;99692.53;;;1.80;100.00
75425;BME280;64007;50.632;13.700;2023-01-23T09:21:05;99692.03;;;2.08;100.00
75425;BME280;64007;50.632;13.700;2023-01-23T09:23:31;99693.50;;;2.21;100.00
75425;BME280;64007;50.632;13.700;2023-01-23T09:26:02;99713.56;;;2.24;100.00
75425;BME280;64007;50.632;13.700;2023-01-23T09:28:28;99707.53;;;2.20;100.00
75425;BME280;64007;50.632;13.700;2023-01-23T09:30:54;99699.22;;;1.97;100.00
75425;BME280;64007;50.632;13.700;2023-01-23T09:33:20;99715.91;;;1.93;100.00
75425;BME280;64007;50.632;13.700;2023-01-23T09:35:52;99713.06;;;2.05;100.00
75425;BME280;64007;50.632;13.700;2023-01-23T09:38:18;99699.81;;;2.12;100.00
75425;BME280;64007;50.632;13.700;2023-01-23T09:40:48;99707.53;;;2.20;100.00
75425;BME280;64007;50.632;13.700;2023-01-23T09:43:17;99697.09;;;2.17;100.00
75425;BME280;64007;50.632;13.700;2023-01-23T09:45:56;99705.59;;;2.28;100.00
75425;BME280;64007;50.632;13.700;2023-01-23T09:53:51;99711.88;;;2.63;100.00
75425;BME280;64007;50.632;13.700;2023-01-23T10:01:52;99709.63;;;2.86;100.00
75425;BME280;64007;50.632;13.700;2023-01-23T10:04:18;99709.72;;;2.81;100.00
75425;BME280;64007;50.632;13.700;2023-01-23T10:12:35;99722.72;;;2.88;100.00
75425;BME280;64007;50.632;13.700;2023-01-23T10:25:49;99711.47;;;3.18;100.00
75425;BME280;64007;50.632;13.700;2023-01-23T10:30:59;99709.41;;;3.66;100.00
75425;BME280;64007;50.632;13.700;2023-01-23T10:36:31;99698.09;;;3.64;100.00
75425;BME280;64007;50.632;13.700;2023-01-23T10:39:10;99700.50;;;3.72;100.00
75425;BME280;64007;50.632;13.700;2023-01-23T10:41:37;99700.53;;;3.70;100.00
75425;BME280;64007;50.632;13.700;2023-01-23T10:44:15;99695.66;;;3.55;100.00
75425;BME280;64007;50.632;13.700;2023-01-23T10:46:58;99684.84;;;3.67;100.00
75425;BME280;64007;50.632;13.700;2023-01-23T10:49:35;99685.00;;;3.61;100.00
75425;BME280;64007;50.632;13.700;2023-01-23T10:52:03;99672.31;;;3.43;100.00
75425;BME280;64007;50.632;13.700;2023-01-23T10:54:29;99673.41;;;3.34;100.00
75425;BME280;64007;50.632;13.700;2023-01-23T10:57:18;99666.66;;;3.24;100.00
75425;BME280;64007;50.632;13.700;2023-01-23T10:59:57;99662.44;;;3.17;100.00
75425;BME280;64007;50.632;13.700;2023-01-23T11:02:28;99669.50;;;3.15;100.00
75425;BME280;64007;50.632;13.700;2023-01-23T11:04:55;99666.91;;;3.13;100.00
75425;BME280;64007;50.632;13.700;2023-01-23T11:07:23;99674.56;;;3.24;100.00
75425;BME280;64007;50.632;13.700;2023-01-23T11:09:58;99673.53;;;3.30;100.00
75425;BME280;64007;50.632;13.700;2023-01-23T11:12:28;99676.81;;;3.38;100.00
75425;BME280;64007;50.632;13.700;2023-01-23T11:15:31;99667.97;;;3.42;100.00
75425;BME280;64007;50.632;13.700;2023-01-23T11:17:59;99665.66;;;3.64;100.00
75425;BME280;64007;50.632;13.700;2023-01-23T11:20:35;99669.34;;;3.55;100.00
75425;BME280;64007;50.632;13.700;2023-01-23T11:25:43;99672.22;;;3.46;100.00
75425;BME280;64007;50.632;13.700;2023-01-23T11:31:08;99683.03;;;3.69;100.00
75425;BME280;64007;50.632;13.700;2023-01-23T11:39:02;99679.06;;;3.53;100.00
75425;BME280;64007;50.632;13.700;2023-01-23T11:41:32;99682.00;;;3.41;100.00
75425;BME280;64007;50.632;13.700;2023-01-23T11:44:03;99675.09;;;3.37;100.00
75425;BME280;64007;50.632;13.700;2023-01-23T11:53:08;99679.78;;;3.58;100.00
75425;BME280;64007;50.632;13.700;2023-01-23T11:55:44;99673.72;;;3.56;100.00
75425;BME280;64007;50.632;13.700;2023-01-23T12:06:33;99639.84;;;3.44;100.00
75425;BME280;64007;50.632;13.700;2023-01-23T12:09:17;99641.13;;;3.63;100.00
75425;BME280;64007;50.632;13.700;2023-01-23T12:14:28;99616.38;;;3.70;100.00
75425;BME280;64007;50.632;13.700;2023-01-23T12:22:50;99613.16;;;3.59;100.00
75425;BME280;64007;50.632;13.700;2023-01-23T12:25:32;99613.16;;;3.59;100.00
75425;BME280;64007;50.632;13.700;2023-01-23T12:33:55;99608.06;;;3.84;100.00
75425;BME280;64007;50.632;13.700;2023-01-23T12:42:02;99606.22;;;3.88;100.00
75425;BME280;64007;50.632;13.700;2023-01-23T12:44:30;99605.00;;;3.99;100.00
75425;BME280;64007;50.632;13.700;2023-01-23T12:47:04;99608.25;;;4.09;100.00
75425;BME280;64007;50.632;13.700;2023-01-23T12:55:20;99606.44;;;4.11;100.00
75425;BME280;64007;50.632;13.700;2023-01-23T12:57:50;99604.25;;;4.25;96.35
75425;BME280;64007;50.632;13.700;2023-01-23T13:05:55;99613.06;;;4.24;92.86
75425;BME280;64007;50.632;13.700;2023-01-23T13:16:58;99608.88;;;4.47;96.86
75425;BME280;64007;50.632;13.700;2023-01-23T13:19:31;99610.50;;;4.51;93.32
75425;BME280;64007;50.632;13.700;2023-01-23T13:22:24;99608.59;;;4.56;90.34
75425;BME280;64007;50.632;13.700;2023-01-23T13:27:50;99611.34;;;4.79;87.85
75425;BME280;64007;50.632;13.700;2023-01-23T13:32:54;99611.28;;;4.82;87.50
75425;BME280;64007;50.632;13.700;2023-01-23T13:52:24;99614.16;;;5.01;84.38
75425;BME280;64007;50.632;13.700;2023-01-23T13:58:14;99625.06;;;5.17;85.44
75425;BME280;64007;50.632;13.700;2023-01-23T14:00:46;99620.66;;;5.17;86.96
75425;BME280;64007;50.632;13.700;2023-01-23T14:03:35;99622.31;;;5.20;84.16
75425;BME280;64007;50.632;13.700;2023-01-23T14:06:33;99624.94;;;5.21;80.40
75425;BME280;64007;50.632;13.700;2023-01-23T14:08:59;99634.63;;;5.21;79.31
75425;BME280;64007;50.632;13.700;2023-01-23T14:11:36;99634.25;;;5.31;85.12
75425;BME280;64007;50.632;13.700;2023-01-23T14:14:03;99632.38;;;5.35;79.17
75425;BME280;64007;50.632;13.700;2023-01-23T14:16:49;99634.00;;;5.39;79.02
75425;BME280;64007;50.632;13.700;2023-01-23T14:19:25;99642.81;;;5.38;74.76
75425;BME280;64007;50.632;13.700;2023-01-23T14:22:05;99637.97;;;5.26;73.71
75425;BME280;64007;50.632;13.700;2023-01-23T14:24:43;99637.31;;;5.18;77.84
75425;BME280;64007;50.632;13.700;2023-01-23T14:27:29;99640.94;;;4.89;77.35
75425;BME280;64007;50.632;13.700;2023-01-23T14:29:59;99646.91;;;4.66;79.74
75425;BME280;64007;50.632;13.700;2023-01-23T14:32:28;99640.38;;;4.50;84.46
75425;BME280;64007;50.632;13.700;2023-01-23T14:34:55;99647.91;;;4.32;83.03
75425;BME280;64007;50.632;13.700;2023-01-23T14:37:21;99645.47;;;4.56;83.00
75425;BME280;64007;50.632;13.700;2023-01-23T14:39:47;99653.22;;;4.60;83.39
75425;BME280;64007;50.632;13.700;2023-01-23T14:42:23;99648.63;;;4.67;83.08
75425;BME280;64007;50.632;13.700;2023-01-23T14:44:50;99653.91;;;4.67;84.37
75425;BME280;64007;50.632;13.700;2023-01-23T14:47:29;99653.09;;;4.65;83.47
75425;BME280;64007;50.632;13.700;2023-01-23T14:49:56;99654.81;;;4.66;83.99
75425;BME280;64007;50.632;13.700;2023-01-23T14:52:25;99657.34;;;4.69;80.47
75425;BME280;64007;50.632;13.700;2023-01-23T14:54:51;99648.34;;;4.48;86.13
75425;BME280;64007;50.632;13.700;2023-01-23T14:57:19;99652.59;;;4.23;86.52
75425;BME280;64007;50.632;13.700;2023-01-23T14:59:46;99650.31;;;4.11;87.72
75425;BME280;64007;50.632;13.700;2023-01-23T15:02:32;99656.91;;;3.94;87.14
75425;BME280;64007;50.632;13.700;2023-01-23T15:05:18;99658.81;;;3.89;87.72
75425;BME280;64007;50.632;13.700;2023-01-23T15:08:01;99661.72;;;3.78;88.38